createdAt,value
2023-02-19T00:01:43.532Z,98.13
2023-02-19T00:04:17.851Z,98.93
2023-02-19T00:06:46.278Z,98.49
2023-02-19T00:09:15.453Z,98.38
2023-02-19T00:11:44.423Z,98.63
2023-02-19T00:14:15.875Z,98.94
2023-02-19T00:16:42.988Z,99.04
2023-02-19T00:19:14.311Z,98.91
2023-02-19T00:21:41.611Z,98.09
2023-02-19T00:24:11.967Z,97.37
2023-02-19T00:26:40.803Z,96.61
2023-02-19T00:29:09.537Z,96.69
2023-02-19T00:31:36.760Z,96.94
2023-02-19T00:34:05.981Z,96.95
2023-02-19T00:36:36.095Z,96.95
2023-02-19T00:39:04.688Z,97.36
2023-02-19T00:41:32.677Z,97.93
2023-02-19T00:44:02.129Z,97.49
2023-02-19T00:46:33.327Z,98.35
2023-02-19T00:49:01.287Z,98.16
2023-02-19T00:51:33.523Z,95.88
2023-02-19T00:54:00.727Z,94.59
2023-02-19T00:56:28.218Z,95.76
2023-02-19T00:58:56.834Z,95.97
2023-02-19T01:01:24.083Z,96.98
2023-02-19T01:03:52.195Z,96.18
2023-02-19T01:06:20.983Z,96.11
2023-02-19T01:08:48.803Z,95.46
2023-02-19T01:11:16.532Z,97.12
2023-02-19T01:13:43.952Z,97.55
2023-02-19T01:16:18.072Z,97.84
2023-02-19T01:18:46.156Z,97.32
2023-02-19T01:21:16.184Z,97.78
2023-02-19T01:23:44.173Z,98.24
2023-02-19T01:26:15.127Z,98.61
2023-02-19T01:28:42.761Z,99.00
2023-02-19T01:31:13.972Z,99.74
2023-02-19T01:33:45.283Z,99.09
2023-02-19T01:36:12.809Z,98.04
2023-02-19T01:38:40.439Z,98.08
2023-02-19T01:41:10.536Z,98.14
2023-02-19T01:44:07.944Z,99.01
2023-02-19T01:46:41.367Z,99.13
2023-02-19T01:49:14.749Z,99.46
2023-02-19T01:51:47.452Z,99.93
2023-02-19T01:54:17.333Z,100.00
2023-02-19T01:56:48.765Z,100.00
2023-02-19T01:59:18.101Z,100.00
2023-02-19T02:01:45.409Z,100.00
2023-02-19T02:04:14.903Z,100.00
2023-02-19T02:06:52.208Z,100.00
2023-02-19T02:09:39.294Z,100.00
2023-02-19T02:12:07.145Z,100.00
2023-02-19T02:14:37.315Z,99.46
2023-02-19T02:17:36.732Z,98.93
2023-02-19T02:20:44.309Z,98.02
2023-02-19T02:23:20.256Z,96.34
2023-02-19T02:26:08.843Z,95.51
2023-02-19T02:28:42.399Z,95.97
2023-02-19T02:31:25.825Z,96.45
2023-02-19T02:34:07.637Z,96.13
2023-02-19T02:36:39.183Z,96.06
2023-02-19T02:39:11.616Z,96.27
2023-02-19T02:42:14.596Z,95.87
2023-02-19T02:45:04.688Z,97.86
2023-02-19T02:47:41.214Z,98.47
2023-02-19T02:50:26.468Z,99.21
2023-02-19T02:53:18.775Z,99.00
2023-02-19T02:55:49.688Z,99.06
2023-02-19T02:58:17.923Z,99.21
2023-02-19T03:01:10.511Z,100.00
2023-02-19T03:03:39.931Z,100.00
2023-02-19T03:06:11.825Z,100.00
2023-02-19T03:09:00.010Z,100.00
2023-02-19T03:11:47.127Z,100.00
2023-02-19T03:14:38.929Z,100.00
2023-02-19T03:17:34.174Z,99.64
2023-02-19T03:20:07.634Z,99.16
2023-02-19T03:22:37.853Z,99.89
2023-02-19T03:25:38.280Z,100.00
2023-02-19T03:28:08.748Z,100.00
2023-02-19T03:30:40.456Z,100.00
2023-02-19T03:33:14.119Z,100.00
2023-02-19T03:35:47.457Z,100.00
2023-02-19T03:38:26.698Z,100.00
2023-02-19T03:40:57.016Z,100.00
2023-02-19T03:43:38.643Z,100.00
2023-02-19T03:46:13.905Z,100.00
2023-02-19T03:48:50.961Z,100.00
2023-02-19T03:51:44.006Z,100.00
2023-02-19T03:54:35.231Z,100.00
2023-02-19T03:57:11.759Z,100.00
2023-02-19T03:59:54.020Z,100.00
2023-02-19T04:02:37.791Z,100.00
2023-02-19T04:05:14.101Z,99.60
2023-02-19T04:07:46.513Z,100.00
2023-02-19T04:10:16.401Z,100.00
2023-02-19T04:12:50.722Z,100.00
2023-02-19T04:15:22.840Z,100.00
2023-02-19T04:18:00.546Z,100.00
2023-02-19T04:20:30.889Z,100.00
2023-02-19T04:22:58.588Z,100.00
2023-02-19T04:25:27.800Z,100.00
2023-02-19T04:27:55.193Z,100.00
2023-02-19T04:30:22.644Z,100.00
2023-02-19T04:32:49.725Z,100.00
2023-02-19T04:35:16.893Z,100.00
2023-02-19T04:37:43.969Z,100.00
2023-02-19T04:40:11.344Z,100.00
2023-02-19T04:42:38.408Z,100.00
2023-02-19T04:45:05.852Z,100.00
2023-02-19T04:47:33.070Z,100.00
2023-02-19T04:50:00.159Z,100.00
2023-02-19T04:52:27.262Z,100.00
2023-02-19T04:54:54.388Z,100.00
2023-02-19T04:57:21.489Z,100.00
2023-02-19T04:59:48.576Z,100.00
2023-02-19T05:02:15.740Z,100.00
2023-02-19T05:04:42.905Z,99.79
2023-02-19T05:07:10.330Z,100.00
2023-02-19T05:09:37.456Z,100.00
2023-02-19T05:12:04.641Z,100.00
2023-02-19T05:14:31.729Z,100.00
2023-02-19T05:16:58.818Z,100.00
2023-02-19T05:19:25.861Z,100.00
2023-02-19T05:21:52.952Z,100.00
2023-02-19T05:24:20.113Z,100.00
2023-02-19T05:26:48.216Z,100.00
2023-02-19T05:29:15.451Z,100.00
2023-02-19T05:31:42.610Z,100.00
2023-02-19T05:34:09.776Z,99.38
2023-02-19T05:36:37.532Z,100.00
2023-02-19T05:39:06.238Z,100.00
2023-02-19T05:41:33.369Z,100.00
2023-02-19T05:44:00.645Z,99.49
2023-02-19T05:46:32.573Z,99.26
2023-02-19T05:48:59.750Z,98.75
2023-02-19T05:51:27.583Z,99.08
2023-02-19T05:53:56.324Z,99.13
2023-02-19T05:56:33.977Z,99.26
2023-02-19T05:59:03.994Z,99.11
2023-02-19T06:01:31.227Z,98.38
2023-02-19T06:03:58.494Z,98.36
2023-02-19T06:06:27.278Z,98.52
2023-02-19T06:08:55.142Z,99.11
2023-02-19T06:11:23.325Z,99.65
2023-02-19T06:13:50.768Z,99.90
2023-02-19T06:16:18.787Z,100.00
2023-02-19T06:18:46.166Z,99.94
2023-02-19T06:21:15.088Z,99.92
2023-02-19T06:23:43.232Z,99.80
2023-02-19T06:26:19.837Z,100.00
2023-02-19T06:28:49.234Z,100.00
2023-02-19T06:31:17.113Z,100.00
2023-02-19T06:33:44.903Z,100.00
2023-02-19T06:36:17.819Z,100.00
2023-02-19T06:38:45.208Z,100.00
2023-02-19T06:41:13.439Z,100.00
2023-02-19T06:43:40.912Z,99.33
2023-02-19T06:46:08.184Z,97.72
2023-02-19T06:48:35.614Z,97.22
2023-02-19T06:51:03.119Z,97.10
2023-02-19T06:53:30.381Z,96.66
2023-02-19T06:56:03.509Z,96.62
2023-02-19T06:58:31.439Z,96.76
2023-02-19T07:00:58.973Z,97.63
2023-02-19T07:03:26.522Z,97.17
2023-02-19T07:05:53.778Z,96.50
2023-02-19T07:08:21.060Z,95.90
2023-02-19T07:10:56.541Z,96.19
2023-02-19T07:13:25.183Z,96.26
2023-02-19T07:15:57.631Z,96.01
2023-02-19T07:18:24.815Z,94.56
2023-02-19T07:20:51.890Z,94.33
2023-02-19T07:23:18.973Z,94.58
2023-02-19T07:25:46.066Z,93.47
2023-02-19T07:28:13.152Z,93.25
2023-02-19T07:30:40.275Z,93.16
2023-02-19T07:33:10.112Z,93.47
2023-02-19T07:35:37.596Z,93.36
2023-02-19T07:38:04.668Z,92.52
2023-02-19T07:40:31.732Z,91.38
2023-02-19T07:43:00.146Z,90.16
2023-02-19T07:45:27.305Z,91.41
2023-02-19T07:47:54.445Z,92.23
2023-02-19T07:50:21.608Z,91.77
2023-02-19T07:52:48.676Z,90.36
2023-02-19T07:55:15.803Z,90.54
2023-02-19T07:57:42.909Z,90.14
2023-02-19T08:00:10.729Z,90.38
2023-02-19T08:02:58.934Z,89.60
2023-02-19T08:05:30.669Z,89.29
2023-02-19T08:07:59.288Z,89.04
2023-02-19T08:10:45.943Z,89.44
2023-02-19T08:13:25.188Z,88.81
2023-02-19T08:16:18.381Z,89.05
2023-02-19T08:18:49.436Z,88.25
2023-02-19T08:21:20.454Z,87.91
2023-02-19T08:23:49.935Z,86.18
2023-02-19T08:26:18.256Z,85.03
2023-02-19T08:28:45.568Z,85.20
2023-02-19T08:31:13.082Z,84.07
2023-02-19T08:33:40.788Z,82.67
2023-02-19T08:36:09.372Z,82.64
2023-02-19T08:38:36.724Z,81.20
2023-02-19T08:41:09.707Z,81.00
2023-02-19T08:43:37.157Z,79.34
2023-02-19T08:46:05.090Z,79.33
2023-02-19T08:48:32.715Z,79.33
2023-02-19T08:51:03.860Z,79.54
2023-02-19T08:53:32.485Z,78.34
2023-02-19T08:56:06.872Z,78.01
2023-02-19T08:58:34.073Z,77.50
2023-02-19T09:01:01.217Z,77.66
2023-02-19T09:03:28.395Z,75.59
2023-02-19T09:05:55.476Z,75.96
2023-02-19T09:08:22.551Z,75.24
2023-02-19T09:11:04.495Z,73.13
2023-02-19T09:13:31.651Z,72.58
2023-02-19T09:15:58.832Z,72.92
2023-02-19T09:18:26.339Z,72.41
2023-02-19T09:20:53.468Z,71.54
2023-02-19T09:23:20.594Z,70.01
2023-02-19T09:25:47.653Z,68.73
2023-02-19T09:28:15.546Z,69.07
2023-02-19T09:30:42.668Z,69.52
2023-02-19T09:33:09.768Z,68.61
2023-02-19T09:35:39.695Z,66.64
2023-02-19T09:38:07.120Z,66.23
2023-02-19T09:40:35.650Z,66.88
2023-02-19T09:43:09.757Z,66.95
2023-02-19T09:45:38.105Z,65.99
2023-02-19T09:48:06.369Z,64.48
2023-02-19T09:50:40.864Z,63.26
2023-02-19T09:53:16.952Z,62.71
2023-02-19T09:55:44.967Z,63.86
2023-02-19T09:58:25.698Z,63.29
2023-02-19T10:00:55.256Z,62.78
2023-02-19T10:03:39.125Z,61.94
2023-02-19T10:06:12.265Z,60.84
2023-02-19T10:08:40.400Z,61.79
2023-02-19T10:11:11.774Z,59.75
2023-02-19T10:13:46.701Z,58.77
2023-02-19T10:16:17.516Z,58.52
2023-02-19T10:18:46.405Z,57.94
2023-02-19T10:21:23.083Z,57.85
2023-02-19T10:23:55.567Z,56.56
2023-02-19T10:26:24.153Z,56.80
2023-02-19T10:28:51.410Z,55.80
2023-02-19T10:31:21.963Z,54.68
2023-02-19T10:33:58.076Z,55.20
2023-02-19T10:36:44.869Z,57.44
2023-02-19T10:39:30.459Z,57.76
2023-02-19T10:41:58.721Z,56.78
2023-02-19T10:44:29.072Z,55.71
2023-02-19T10:46:59.227Z,56.27
2023-02-19T10:49:30.121Z,56.07
2023-02-19T10:52:02.436Z,56.44
2023-02-19T10:54:32.520Z,56.53
2023-02-19T10:57:14.738Z,55.78
2023-02-19T11:00:01.120Z,54.82
2023-02-19T11:02:30.182Z,55.35
2023-02-19T11:05:09.174Z,55.62
2023-02-19T11:07:37.537Z,55.47
2023-02-19T11:10:07.076Z,54.34
2023-02-19T11:12:35.048Z,54.16
2023-02-19T11:15:28.712Z,53.75
2023-02-19T11:18:11.949Z,54.53
2023-02-19T11:20:54.581Z,54.21
2023-02-19T11:23:37.462Z,54.23
2023-02-19T11:26:18.724Z,54.83
2023-02-19T11:28:45.801Z,55.50
2023-02-19T11:31:20.277Z,55.08
2023-02-19T11:34:02.542Z,55.52
2023-02-19T11:36:31.055Z,56.27
2023-02-19T11:39:02.684Z,55.95
2023-02-19T11:42:07.770Z,57.17
2023-02-19T11:44:58.074Z,56.17
2023-02-19T11:47:55.798Z,55.85
2023-02-19T11:50:44.477Z,56.69
2023-02-19T11:53:28.950Z,55.83
2023-02-19T11:56:14.678Z,55.53
2023-02-19T11:58:53.581Z,54.69
2023-02-19T12:01:29.773Z,53.43
2023-02-19T12:04:26.877Z,54.10
2023-02-19T12:07:27.793Z,54.68
2023-02-19T12:10:00.660Z,54.54
2023-02-19T12:12:37.856Z,54.38
2023-02-19T12:15:25.273Z,53.80
2023-02-19T12:18:04.578Z,54.30
2023-02-19T12:20:50.157Z,54.77
2023-02-19T12:23:49.349Z,55.57
2023-02-19T12:26:16.363Z,54.66
2023-02-19T12:29:23.035Z,54.36
2023-02-19T12:31:58.801Z,55.59
2023-02-19T12:34:31.582Z,56.03
2023-02-19T12:37:05.413Z,55.56
2023-02-19T12:40:05.330Z,55.00
2023-02-19T12:43:08.944Z,55.82
2023-02-19T12:45:42.705Z,55.50
2023-02-19T12:48:27.985Z,56.23
2023-02-19T12:51:05.153Z,55.92
2023-02-19T12:53:35.250Z,55.01
2023-02-19T12:56:10.589Z,55.26
2023-02-19T12:58:45.689Z,54.28
2023-02-19T13:01:23.233Z,54.29
2023-02-19T13:04:01.991Z,55.02
2023-02-19T13:06:41.654Z,54.47
2023-02-19T13:09:23.597Z,54.29
2023-02-19T13:12:01.758Z,55.08
2023-02-19T13:14:28.778Z,55.78
2023-02-19T13:17:04.210Z,55.81
2023-02-19T13:19:32.844Z,55.77
2023-02-19T13:22:34.713Z,55.47
2023-02-19T13:25:03.444Z,55.52
2023-02-19T13:27:42.334Z,56.56
2023-02-19T13:30:33.396Z,56.62
2023-02-19T13:33:15.805Z,55.53
2023-02-19T13:36:12.581Z,56.30
2023-02-19T13:38:43.476Z,57.40
2023-02-19T13:41:31.659Z,56.53
2023-02-19T13:44:16.518Z,57.29
2023-02-19T13:46:46.177Z,56.47
2023-02-19T13:49:42.493Z,57.15
2023-02-19T13:52:28.069Z,57.62
2023-02-19T13:55:32.659Z,58.21
2023-02-19T13:58:33.747Z,57.44
2023-02-19T14:01:03.656Z,58.24
2023-02-19T14:03:54.618Z,57.68
2023-02-19T14:06:21.824Z,57.17
2023-02-19T14:08:56.622Z,58.38
2023-02-19T14:11:41.877Z,57.23
2023-02-19T14:14:37.666Z,58.54
2023-02-19T14:17:24.420Z,57.89
2023-02-19T14:20:00.300Z,58.61
2023-02-19T14:22:52.427Z,57.98
2023-02-19T14:25:31.778Z,57.88
2023-02-19T14:28:11.293Z,58.52
2023-02-19T14:31:00.994Z,58.36
2023-02-19T14:34:03.144Z,57.48
2023-02-19T14:36:48.858Z,59.28
2023-02-19T14:39:26.044Z,58.47
2023-02-19T14:41:57.120Z,57.10
2023-02-19T14:44:30.078Z,57.30
2023-02-19T14:47:05.432Z,56.82
2023-02-19T14:49:35.201Z,56.15
2023-02-19T14:52:10.560Z,55.99
2023-02-19T14:54:50.753Z,54.36
2023-02-19T14:57:22.050Z,53.57
2023-02-19T14:59:58.616Z,52.67
2023-02-19T15:02:27.523Z,51.93
2023-02-19T15:04:55.399Z,51.32
2023-02-19T15:07:27.560Z,50.47
2023-02-19T15:09:58.644Z,50.51
2023-02-19T15:12:31.718Z,50.42
2023-02-19T15:15:03.000Z,50.55
2023-02-19T15:17:33.604Z,50.03
2023-02-19T15:20:05.207Z,48.99
2023-02-19T15:22:32.697Z,50.23
2023-02-19T15:25:05.095Z,51.19
2023-02-19T15:27:34.233Z,52.75
2023-02-19T15:30:01.353Z,53.16
2023-02-19T15:32:28.736Z,53.93
2023-02-19T15:35:01.422Z,53.95
2023-02-19T15:37:35.188Z,54.02
2023-02-19T15:40:07.531Z,54.92
2023-02-19T15:42:37.141Z,55.63
2023-02-19T15:45:17.639Z,56.10
2023-02-19T15:48:04.478Z,56.03
2023-02-19T15:50:39.190Z,56.03
2023-02-19T15:53:29.548Z,57.03
2023-02-19T15:56:09.241Z,57.47
2023-02-19T15:58:46.989Z,57.27
2023-02-19T16:01:40.395Z,58.11
2023-02-19T16:04:14.536Z,59.11
2023-02-19T16:07:01.769Z,58.69
2023-02-19T16:09:29.060Z,58.55
2023-02-19T16:11:59.405Z,60.13
2023-02-19T16:14:32.227Z,60.50
2023-02-19T16:17:11.371Z,61.63
2023-02-19T16:19:58.553Z,62.17
2023-02-19T16:22:29.218Z,63.04
2023-02-19T16:25:00.488Z,63.72
2023-02-19T16:27:31.138Z,64.89
2023-02-19T16:30:01.076Z,65.57
2023-02-19T16:32:28.423Z,66.35
2023-02-19T16:34:55.661Z,67.70
2023-02-19T16:37:33.097Z,68.99
2023-02-19T16:40:09.052Z,69.62
2023-02-19T16:42:56.924Z,70.51
2023-02-19T16:45:27.342Z,70.92
2023-02-19T16:47:54.597Z,71.48
2023-02-19T16:50:24.819Z,72.09
2023-02-19T16:52:54.349Z,72.74
2023-02-19T16:55:22.251Z,73.26
2023-02-19T16:57:49.981Z,74.12
2023-02-19T17:00:22.209Z,74.66
2023-02-19T17:02:51.955Z,75.41
2023-02-19T17:05:20.732Z,75.98
2023-02-19T17:07:48.482Z,75.75
2023-02-19T17:10:22.944Z,76.31
2023-02-19T17:12:50.891Z,77.33
2023-02-19T17:15:18.382Z,77.27
2023-02-19T17:17:45.572Z,76.89
2023-02-19T17:20:18.269Z,77.34
2023-02-19T17:22:45.365Z,77.13
2023-02-19T17:25:12.464Z,77.77
2023-02-19T17:27:41.091Z,77.86
2023-02-19T17:30:16.527Z,77.69
2023-02-19T17:32:43.634Z,77.84
2023-02-19T17:35:10.828Z,77.50
2023-02-19T17:37:37.942Z,78.12
2023-02-19T17:40:31.741Z,77.99
2023-02-19T17:42:59.616Z,78.46
2023-02-19T17:45:26.792Z,79.07
2023-02-19T17:47:53.916Z,79.51
2023-02-19T17:50:24.567Z,80.54
2023-02-19T17:52:51.891Z,80.93
2023-02-19T17:55:19.594Z,82.22
2023-02-19T17:57:51.046Z,81.77
2023-02-19T18:00:21.373Z,81.45
2023-02-19T18:02:48.560Z,81.76
2023-02-19T18:05:15.805Z,82.56
2023-02-19T18:07:43.552Z,85.12
2023-02-19T18:10:11.263Z,84.73
2023-02-19T18:12:39.648Z,83.63
2023-02-19T18:15:08.291Z,85.71
2023-02-19T18:17:35.612Z,85.94
2023-02-19T18:20:04.613Z,86.30
2023-02-19T18:22:32.306Z,86.42
2023-02-19T18:24:59.568Z,86.74
2023-02-19T18:27:26.727Z,86.59
2023-02-19T18:29:55.453Z,87.09
2023-02-19T18:32:25.044Z,87.24
2023-02-19T18:34:55.193Z,87.51
2023-02-19T18:37:24.472Z,87.61
2023-02-19T18:39:52.281Z,88.19
2023-02-19T18:42:20.968Z,88.47
2023-02-19T18:44:49.017Z,89.12
2023-02-19T18:47:17.592Z,89.85
2023-02-19T18:49:53.224Z,90.56
2023-02-19T18:52:23.831Z,90.42
2023-02-19T18:54:52.191Z,90.16
2023-02-19T18:57:21.326Z,90.30
2023-02-19T18:59:49.024Z,90.25
2023-02-19T19:02:16.380Z,90.31
2023-02-19T19:04:48.154Z,90.63
2023-02-19T19:07:15.368Z,90.77
2023-02-19T19:09:42.460Z,90.69
2023-02-19T19:12:09.618Z,91.05
2023-02-19T19:14:37.392Z,91.00
2023-02-19T19:17:04.759Z,91.03
2023-02-19T19:19:31.922Z,91.35
2023-02-19T19:21:58.993Z,91.87
2023-02-19T19:24:26.195Z,92.01
2023-02-19T19:26:53.492Z,92.29
2023-02-19T19:29:22.077Z,92.34
2023-02-19T19:31:49.767Z,92.58
2023-02-19T19:34:17.925Z,92.87
2023-02-19T19:36:45.575Z,92.15
2023-02-19T19:39:13.437Z,92.58
2023-02-19T19:41:40.507Z,92.75
2023-02-19T19:44:08.705Z,94.09
2023-02-19T19:46:43.055Z,94.60
2023-02-19T19:49:10.173Z,94.08
2023-02-19T19:51:37.376Z,93.64
2023-02-19T19:54:04.960Z,94.31
2023-02-19T19:56:32.094Z,94.45
2023-02-19T19:58:59.202Z,94.16
2023-02-19T20:01:26.282Z,94.52
2023-02-19T20:03:53.372Z,94.80
2023-02-19T20:06:28.843Z,95.81
2023-02-19T20:08:56.677Z,95.78
2023-02-19T20:11:23.982Z,95.32
2023-02-19T20:13:51.486Z,95.45
2023-02-19T20:16:24.288Z,94.70
2023-02-19T20:18:51.363Z,95.35
2023-02-19T20:21:18.602Z,96.66
2023-02-19T20:23:45.899Z,96.00
2023-02-19T20:26:13.032Z,97.26
2023-02-19T20:28:45.046Z,97.89
2023-02-19T20:31:12.590Z,97.98
2023-02-19T20:33:39.890Z,97.55
2023-02-19T20:36:07.621Z,97.52
2023-02-19T20:38:34.686Z,97.56
2023-02-19T20:41:02.567Z,96.03
2023-02-19T20:43:29.665Z,97.49
2023-02-19T20:45:56.730Z,97.34
2023-02-19T20:48:23.850Z,97.60
2023-02-19T20:50:50.920Z,98.49
2023-02-19T20:53:17.994Z,99.40
2023-02-19T20:55:45.081Z,100.00
2023-02-19T20:58:12.201Z,100.00
2023-02-19T21:00:39.331Z,100.00
2023-02-19T21:03:08.969Z,100.00
2023-02-19T21:05:37.026Z,99.90
2023-02-19T21:08:04.908Z,99.77
2023-02-19T21:10:31.982Z,100.00
2023-02-19T21:12:59.069Z,100.00
2023-02-19T21:15:26.165Z,100.00
2023-02-19T21:17:53.257Z,100.00
2023-02-19T21:20:20.888Z,100.00
2023-02-19T21:22:47.976Z,100.00
2023-02-19T21:25:15.110Z,100.00
2023-02-19T21:27:42.201Z,100.00
2023-02-19T21:30:09.544Z,100.00
2023-02-19T21:32:36.712Z,100.00
2023-02-19T21:35:04.060Z,100.00
2023-02-19T21:37:31.316Z,100.00
2023-02-19T21:40:00.341Z,100.00
2023-02-19T21:42:27.600Z,99.57
2023-02-19T21:44:54.786Z,100.00
2023-02-19T21:47:21.870Z,99.79
2023-02-19T21:49:48.980Z,100.00
2023-02-19T21:52:16.139Z,100.00
2023-02-19T21:54:43.228Z,100.00
2023-02-19T21:57:10.406Z,100.00
2023-02-19T21:59:37.552Z,99.93
2023-02-19T22:02:04.674Z,99.50
2023-02-19T22:04:31.759Z,99.19
2023-02-19T22:06:58.874Z,99.86
2023-02-19T22:09:26.013Z,98.94
2023-02-19T22:11:53.113Z,98.67
2023-02-19T22:14:20.324Z,99.27
2023-02-19T22:16:47.504Z,99.70
2023-02-19T22:19:14.678Z,99.41
2023-02-19T22:21:44.330Z,99.70
2023-02-19T22:24:21.306Z,100.00
2023-02-19T22:26:50.516Z,99.07
2023-02-19T22:29:18.041Z,98.55
2023-02-19T22:31:45.262Z,98.28
2023-02-19T22:34:12.571Z,98.10
2023-02-19T22:36:40.376Z,98.35
2023-02-19T22:39:15.102Z,99.25
2023-02-19T22:41:43.306Z,100.00
2023-02-19T22:44:11.208Z,100.00
2023-02-19T22:46:38.283Z,100.00
2023-02-19T22:49:06.575Z,100.00
2023-02-19T22:51:35.540Z,100.00
2023-02-19T22:54:02.697Z,100.00
2023-02-19T22:56:29.905Z,100.00
2023-02-19T22:58:58.740Z,100.00
2023-02-19T23:01:25.892Z,100.00
2023-02-19T23:03:55.423Z,100.00
2023-02-19T23:06:30.812Z,100.00
2023-02-19T23:09:01.868Z,100.00
2023-02-19T23:11:32.376Z,100.00
2023-02-19T23:13:59.530Z,100.00
2023-02-19T23:16:27.310Z,100.00
2023-02-19T23:18:55.262Z,100.00
2023-02-19T23:21:23.098Z,100.00
2023-02-19T23:23:50.600Z,100.00
2023-02-19T23:26:18.298Z,100.00
2023-02-19T23:28:46.430Z,100.00
2023-02-19T23:31:14.366Z,100.00
2023-02-19T23:33:42.392Z,100.00
2023-02-19T23:36:10.690Z,100.00
2023-02-19T23:38:38.076Z,100.00
2023-02-19T23:41:10.551Z,100.00
2023-02-19T23:43:38.049Z,100.00
2023-02-19T23:46:05.636Z,100.00
2023-02-19T23:48:32.938Z,100.00
2023-02-19T23:51:00.276Z,100.00
2023-02-19T23:53:27.427Z,100.00
2023-02-19T23:55:54.846Z,100.00
2023-02-19T23:58:21.917Z,100.00
